Time;durP1;ratioP1;P1;durP2;ratioP2;P2;SDS_P1;SDS_P2;PMS_P1;PMS_P2;Temp;Humidity;BMP_temperature;BMP_pressure;BME280_temperature;BME280_humidity;BME280_pressure;Samples;Min_cycle;Max_cycle;Signal;HPM_P1;HPM_P2
2022/11/19 00:01:59;;;;;;;;;;;2.50;99.90;;;;;;5089773;28;19913;-76
2022/11/19 00:04:25;;;;;;;;;;;2.40;99.90;;;;;;5073950;28;19909;-76
2022/11/19 00:06:51;;;;;;;;;;;2.40;99.90;;;;;;5089657;28;19908;-75
2022/11/19 00:09:17;;;;;;;;;;;2.40;99.90;;;;;;5089479;28;19915;-75
2022/11/19 00:14:28;;;;;;;;;;;2.20;99.90;;;;;;5073743;28;19934;-76
2022/11/19 00:16:53;;;;;;;;;;;2.30;99.90;;;;;;5089249;28;20019;-78
2022/11/19 00:19:18;;;;;;;;;;;2.30;99.90;;;;;;5089436;28;20348;-75
2022/11/19 00:21:44;;;;;;;;;;;2.30;99.90;;;;;;5073702;28;20009;-75
2022/11/19 00:24:09;;;;;;;;;;;2.20;99.90;;;;;;5073714;28;19915;-75
2022/11/19 00:26:35;;;;;;;;;;;2.30;99.90;;;;;;5073672;28;19981;-75
2022/11/19 00:29:00;;;;;;;;;;;2.20;99.90;;;;;;5089235;28;20377;-75
2022/11/19 00:31:26;;;;;;;;;;;2.10;99.90;;;;;;5089242;28;19908;-76
2022/11/19 00:33:53;;;;;;;;;;;2.10;99.90;;;;;;5072195;28;19954;-74
2022/11/19 00:36:19;;;;;;;;;;;2.10;99.90;;;;;;5073629;28;19912;-75
2022/11/19 00:38:44;;;;;;;;;;;2.10;99.90;;;;;;5088992;28;19920;-76
2022/11/19 00:41:10;;;;;;;;;;;2.10;99.90;;;;;;5073540;28;19908;-76
2022/11/19 00:43:50;;;;;;;;;;;2.10;99.90;;;;;;5089080;28;20002;-75
2022/11/19 00:46:18;;;;;;;;;;;2.10;99.90;;;;;;5087245;28;19909;-75
2022/11/19 00:48:44;;;;;;;;;;;2.10;99.90;;;;;;5089024;28;19920;-76
2022/11/19 00:51:10;;;;;;;;;;;2.10;99.90;;;;;;5089079;28;20023;-76
2022/11/19 00:53:36;;;;;;;;;;;2.00;99.90;;;;;;5073446;28;19958;-75
2022/11/19 00:56:02;;;;;;;;;;;2.00;99.90;;;;;;5073434;28;19913;-76
2022/11/19 00:58:27;;;;;;;;;;;2.10;99.90;;;;;;5089049;28;19948;-76
2022/11/19 01:00:53;;;;;;;;;;;2.00;99.90;;;;;;5072138;28;20345;-76
2022/11/19 01:03:18;;;;;;;;;;;2.00;99.90;;;;;;5073400;28;19909;-75
2022/11/19 01:05:44;;;;;;;;;;;2.00;99.90;;;;;;5088912;28;19912;-76
2022/11/19 01:08:09;;;;;;;;;;;2.00;99.90;;;;;;5073259;28;20389;-75
2022/11/19 01:10:35;;;;;;;;;;;2.00;99.90;;;;;;5073245;28;19909;-76
2022/11/19 01:15:47;;;;;;;;;;;1.90;99.90;;;;;;5073132;28;19916;-76
2022/11/19 01:18:13;;;;;;;;;;;1.90;99.90;;;;;;5071862;28;19925;-76
2022/11/19 01:20:38;;;;;;;;;;;1.90;99.90;;;;;;5073201;28;20025;-75
2022/11/19 01:23:04;;;;;;;;;;;1.80;99.90;;;;;;5073290;28;19912;-76
2022/11/19 01:25:29;;;;;;;;;;;1.80;99.90;;;;;;5088866;28;20298;-75
2022/11/19 01:27:56;;;;;;;;;;;1.80;99.90;;;;;;5073208;28;20332;-75
2022/11/19 01:30:22;;;;;;;;;;;1.70;99.90;;;;;;5073228;28;19909;-77
2022/11/19 01:32:47;;;;;;;;;;;1.70;99.90;;;;;;5073266;28;20397;-77
2022/11/19 01:35:12;;;;;;;;;;;1.60;99.90;;;;;;5073108;28;20286;-76
2022/11/19 01:37:38;;;;;;;;;;;1.60;99.90;;;;;;5088405;28;20006;-74
2022/11/19 01:40:04;;;;;;;;;;;1.60;99.90;;;;;;5072984;28;19917;-75
2022/11/19 01:43:01;;;;;;;;;;;1.60;99.90;;;;;;5072938;28;20386;-74
2022/11/19 01:45:23;;;;;;;;;;;1.60;99.90;;;;;;5072892;28;19909;-76
2022/11/19 01:47:49;;;;;;;;;;;1.60;99.90;;;;;;5076466;28;20400;-76
2022/11/19 01:50:14;;;;;;;;;;;1.60;99.90;;;;;;5076548;28;19908;-75
2022/11/19 01:52:40;;;;;;;;;;;1.60;99.90;;;;;;5076479;28;19931;-76
2022/11/19 01:55:06;;;;;;;;;;;1.60;99.90;;;;;;5076499;28;20021;-75
2022/11/19 01:57:32;;;;;;;;;;;1.60;99.90;;;;;;5076411;28;20374;-76
2022/11/19 01:59:57;;;;;;;;;;;1.60;99.90;;;;;;5091898;28;19920;-76
2022/11/19 02:02:23;;;;;;;;;;;1.60;99.90;;;;;;5076268;28;20370;-75
2022/11/19 02:04:50;;;;;;;;;;;1.60;99.90;;;;;;5091929;28;19909;-76
2022/11/19 02:07:17;;;;;;;;;;;1.60;99.90;;;;;;5091846;28;20374;-77
2022/11/19 02:09:42;;;;;;;;;;;1.60;99.90;;;;;;5076243;28;19954;-75
2022/11/19 02:12:28;;;;;;;;;;;1.50;99.90;;;;;;5076149;28;19908;-76
2022/11/19 02:15:05;;;;;;;;;;;1.50;99.90;;;;;;5076039;28;19932;-76
2022/11/19 02:17:50;;;;;;;;;;;1.50;99.90;;;;;;5075958;28;20374;-76
2022/11/19 02:20:36;;;;;;;;;;;1.50;99.90;;;;;;5075898;28;20382;-75
2022/11/19 02:23:13;;;;;;;;;;;1.50;99.90;;;;;;5058341;28;19931;-75
2022/11/19 02:28:39;;;;;;;;;;;1.70;99.90;;;;;;5066518;22;19947;-73
2022/11/19 02:31:24;;;;;;;;;;;1.40;99.90;;;;;;5051047;28;19953;-73
2022/11/19 02:33:55;;;;;;;;;;;1.40;99.90;;;;;;5051165;28;19916;-73
2022/11/19 02:36:31;;;;;;;;;;;1.30;99.90;;;;;;5033470;28;19909;-72
2022/11/19 02:38:59;;;;;;;;;;;1.40;99.90;;;;;;5050989;28;19909;-73
2022/11/19 02:41:34;;;;;;;;;;;1.30;99.90;;;;;;5051126;28;19932;-73
2022/11/19 02:47:06;;;;;;;;;;;1.30;99.90;;;;;;5050548;28;19917;-72
2022/11/19 02:49:34;;;;;;;;;;;1.30;99.90;;;;;;5050910;28;19955;-73
2022/11/19 02:52:00;;;;;;;;;;;1.40;99.90;;;;;;5050778;28;19935;-73
2022/11/19 02:54:26;;;;;;;;;;;1.30;99.90;;;;;;5050741;28;20267;-74
2022/11/19 02:56:53;;;;;;;;;;;1.30;99.90;;;;;;5032923;28;19910;-73
2022/11/19 03:04:54;;;;;;;;;;;1.30;99.90;;;;;;5035836;28;19909;-73
2022/11/19 03:07:20;;;;;;;;;;;1.30;99.90;;;;;;5050557;28;19920;-73
2022/11/19 03:09:49;;;;;;;;;;;1.30;99.90;;;;;;5050587;28;19952;-73
2022/11/19 03:12:21;;;;;;;;;;;1.20;99.90;;;;;;5015985;28;19909;-72
2022/11/19 03:18:01;;;;;;;;;;;1.20;99.90;;;;;;5050240;28;20426;-74
2022/11/19 03:20:31;;;;;;;;;;;1.30;99.90;;;;;;5049986;28;19959;-73
2022/11/19 03:23:00;;;;;;;;;;;1.20;99.90;;;;;;5050196;28;19909;-73
2022/11/19 03:25:30;;;;;;;;;;;1.20;99.90;;;;;;5050101;28;20354;-73
2022/11/19 03:28:00;;;;;;;;;;;1.20;99.90;;;;;;5049808;28;20011;-73
2022/11/19 03:30:26;;;;;;;;;;;1.20;99.90;;;;;;5032413;28;19909;-73
2022/11/19 03:33:01;;;;;;;;;;;1.20;99.90;;;;;;5032240;28;19959;-73
2022/11/19 03:35:33;;;;;;;;;;;1.20;99.90;;;;;;5032110;28;20003;-72
2022/11/19 03:38:01;;;;;;;;;;;1.30;99.90;;;;;;5027833;28;19917;-73
2022/11/19 03:40:29;;;;;;;;;;;1.20;99.90;;;;;;5036611;28;19948;-72
2022/11/19 03:42:55;;;;;;;;;;;1.20;99.90;;;;;;5019034;28;19913;-73
2022/11/19 03:45:24;;;;;;;;;;;1.20;99.90;;;;;;5002529;28;19996;-73
2022/11/19 03:47:50;;;;;;;;;;;1.20;99.90;;;;;;5018758;28;20271;-73
2022/11/19 03:50:19;;;;;;;;;;;1.20;99.90;;;;;;5036438;28;19909;-73
2022/11/19 03:52:45;;;;;;;;;;;1.20;99.90;;;;;;5018800;28;19986;-73
2022/11/19 03:55:10;;;;;;;;;;;1.10;99.90;;;;;;5002268;28;19917;-73
2022/11/19 03:57:36;;;;;;;;;;;1.10;99.90;;;;;;5018594;28;19910;-73
2022/11/19 04:00:02;;;;;;;;;;;1.10;99.90;;;;;;5036219;28;19963;-73
2022/11/19 04:02:28;;;;;;;;;;;1.10;99.90;;;;;;5018650;28;19959;-73
2022/11/19 04:04:53;;;;;;;;;;;1.10;99.90;;;;;;5018440;28;19909;-73
2022/11/19 04:07:20;;;;;;;;;;;1.10;99.90;;;;;;5018381;28;19919;-73
2022/11/19 04:09:46;;;;;;;;;;;1.10;99.90;;;;;;5036123;28;19916;-73
2022/11/19 04:12:14;;;;;;;;;;;1.00;99.90;;;;;;5036203;28;20359;-73
2022/11/19 04:14:40;;;;;;;;;;;1.10;99.90;;;;;;5018312;28;19916;-73
2022/11/19 04:17:05;;;;;;;;;;;1.10;99.90;;;;;;5035914;28;19909;-72
2022/11/19 04:19:31;;;;;;;;;;;1.10;99.90;;;;;;5035789;28;19909;-72
2022/11/19 04:21:56;;;;;;;;;;;1.10;99.90;;;;;;5018163;28;20043;-73
2022/11/19 04:24:21;;;;;;;;;;;1.20;99.90;;;;;;5035863;28;20462;-73
2022/11/19 04:26:47;;;;;;;;;;;1.10;99.90;;;;;;5035426;28;19925;-73
2022/11/19 04:29:13;;;;;;;;;;;1.10;99.90;;;;;;5017990;28;19913;-72
2022/11/19 04:31:38;;;;;;;;;;;1.20;99.90;;;;;;5018134;28;20333;-72
2022/11/19 04:34:04;;;;;;;;;;;1.10;99.90;;;;;;5035852;28;19914;-73
2022/11/19 04:36:29;;;;;;;;;;;1.10;99.90;;;;;;5018173;28;19952;-73
2022/11/19 04:38:55;;;;;;;;;;;1.10;99.90;;;;;;5017832;28;19909;-73
2022/11/19 04:41:20;;;;;;;;;;;1.10;99.90;;;;;;5035662;28;20000;-73
2022/11/19 04:43:46;;;;;;;;;;;1.20;99.90;;;;;;5017601;28;20003;-73
2022/11/19 04:46:11;;;;;;;;;;;1.20;99.90;;;;;;5035291;28;19913;-73
2022/11/19 04:48:37;;;;;;;;;;;1.20;99.90;;;;;;5017604;28;19910;-73
2022/11/19 04:51:02;;;;;;;;;;;1.10;99.90;;;;;;5016640;28;20378;-72
2022/11/19 04:53:27;;;;;;;;;;;1.10;99.90;;;;;;5001226;28;20363;-72
2022/11/19 04:55:53;;;;;;;;;;;1.20;99.90;;;;;;5035132;28;19995;-72
2022/11/19 04:58:18;;;;;;;;;;;1.10;99.90;;;;;;5017452;28;20192;-73
2022/11/19 05:00:44;;;;;;;;;;;1.10;99.90;;;;;;5034988;28;19951;-73
2022/11/19 05:03:09;;;;;;;;;;;1.10;99.90;;;;;;5017998;28;20296;-73
2022/11/19 05:05:35;;;;;;;;;;;1.10;99.90;;;;;;5035348;28;19909;-73
2022/11/19 05:08:00;;;;;;;;;;;1.10;99.90;;;;;;5035244;28;19970;-73
2022/11/19 05:10:26;;;;;;;;;;;1.00;99.90;;;;;;5017263;28;19909;-73
2022/11/19 05:12:51;;;;;;;;;;;0.90;99.90;;;;;;5017369;28;19932;-73
2022/11/19 05:15:17;;;;;;;;;;;0.90;99.90;;;;;;5017588;28;19909;-73
2022/11/19 05:17:43;;;;;;;;;;;0.90;99.90;;;;;;5017304;28;19960;-73
2022/11/19 05:20:09;;;;;;;;;;;1.00;99.90;;;;;;5035365;28;19959;-72
2022/11/19 05:22:34;;;;;;;;;;;0.90;99.90;;;;;;5017174;28;19909;-73
2022/11/19 05:25:02;;;;;;;;;;;0.90;99.90;;;;;;5017286;28;19909;-75
2022/11/19 05:27:28;;;;;;;;;;;0.80;99.90;;;;;;5001115;28;20326;-72
2022/11/19 05:29:53;;;;;;;;;;;0.90;99.90;;;;;;5034669;28;19909;-71
2022/11/19 05:32:19;;;;;;;;;;;0.90;99.90;;;;;;5017050;28;20028;-72
2022/11/19 05:34:44;;;;;;;;;;;0.80;99.90;;;;;;5034705;28;19959;-71
2022/11/19 05:37:10;;;;;;;;;;;0.80;99.90;;;;;;5034685;28;19932;-71
2022/11/19 05:39:35;;;;;;;;;;;0.80;99.90;;;;;;5034474;28;19909;-71
2022/11/19 05:42:01;;;;;;;;;;;0.70;99.90;;;;;;5017134;28;20018;-71
2022/11/19 05:44:26;;;;;;;;;;;0.70;99.90;;;;;;5034778;28;20448;-71
2022/11/19 05:46:52;;;;;;;;;;;0.60;99.90;;;;;;5016798;28;19940;-71
2022/11/19 05:49:17;;;;;;;;;;;0.60;99.90;;;;;;5034445;28;20008;-72
2022/11/19 05:51:44;;;;;;;;;;;0.50;99.90;;;;;;5034662;28;19913;-71
2022/11/19 05:54:10;;;;;;;;;;;0.50;99.90;;;;;;5001106;28;19963;-72
2022/11/19 05:56:35;;;;;;;;;;;0.50;99.90;;;;;;5034313;28;19948;-75
2022/11/19 05:59:01;;;;;;;;;;;0.40;99.90;;;;;;5016739;28;19913;-72
2022/11/19 06:01:29;;;;;;;;;;;0.40;99.90;;;;;;5016533;28;19909;-72
2022/11/19 06:03:55;;;;;;;;;;;0.30;99.90;;;;;;5016887;28;19921;-73
2022/11/19 06:06:21;;;;;;;;;;;0.30;99.90;;;;;;5016869;28;20032;-74
2022/11/19 06:08:47;;;;;;;;;;;0.30;99.90;;;;;;5000330;28;19916;-72
2022/11/19 06:11:46;;;;;;;;;;;0.20;99.90;;;;;;5034536;28;20379;-73
2022/11/19 06:13:58;;;;;;;;;;;0.20;99.90;;;;;;5019770;28;20334;-73
2022/11/19 06:16:24;;;;;;;;;;;0.20;99.90;;;;;;5034308;28;20378;-73
2022/11/19 06:18:50;;;;;;;;;;;0.10;99.90;;;;;;5016446;28;19952;-73
2022/11/19 06:21:15;;;;;;;;;;;0.10;99.90;;;;;;5016523;28;19916;-73
2022/11/19 06:23:40;;;;;;;;;;;0.10;99.90;;;;;;5016576;28;19967;-73
2022/11/19 06:26:06;;;;;;;;;;;0.00;99.90;;;;;;5016714;28;19916;-73
2022/11/19 06:28:32;;;;;;;;;;;0.00;99.90;;;;;;5016530;28;20012;-73
2022/11/19 06:30:57;;;;;;;;;;;0.00;99.90;;;;;;5034273;28;19948;-73
2022/11/19 06:33:23;;;;;;;;;;;-0.10;99.90;;;;;;5016581;28;20359;-73
2022/11/19 06:35:49;;;;;;;;;;;-0.10;99.90;;;;;;5016344;28;19916;-73
2022/11/19 06:38:14;;;;;;;;;;;-0.10;99.90;;;;;;5016887;28;19909;-73
2022/11/19 06:40:40;;;;;;;;;;;-0.30;99.90;;;;;;5016283;28;20284;-73
2022/11/19 06:43:05;;;;;;;;;;;-0.20;99.90;;;;;;5033891;28;19917;-73
2022/11/19 06:45:31;;;;;;;;;;;-0.30;99.90;;;;;;5033717;28;19910;-74
2022/11/19 06:47:56;;;;;;;;;;;-0.30;99.90;;;;;;5033717;28;19960;-73
2022/11/19 06:50:22;;;;;;;;;;;-0.30;99.90;;;;;;5033666;28;19909;-73
2022/11/19 06:52:47;;;;;;;;;;;-0.30;99.90;;;;;;5015971;28;20074;-73
2022/11/19 06:55:13;;;;;;;;;;;-0.30;99.90;;;;;;5016208;28;19920;-73
2022/11/19 06:57:39;;;;;;;;;;;-0.30;99.90;;;;;;5016467;28;19952;-73
2022/11/19 07:00:05;;;;;;;;;;;-0.40;99.90;;;;;;5033581;28;19963;-73
2022/11/19 07:02:30;;;;;;;;;;;-0.30;99.90;;;;;;5033541;28;20286;-73
2022/11/19 07:04:55;;;;;;;;;;;-0.40;99.90;;;;;;5033543;28;19959;-73
2022/11/19 07:07:21;;;;;;;;;;;-0.40;99.90;;;;;;5033331;28;19991;-73
2022/11/19 07:09:46;;;;;;;;;;;-0.30;99.90;;;;;;4999268;28;19909;-73
2022/11/19 07:12:12;;;;;;;;;;;-0.40;99.90;;;;;;5015933;28;19951;-74
2022/11/19 07:14:37;;;;;;;;;;;-0.40;99.90;;;;;;5036387;28;19909;-74
2022/11/19 07:17:04;;;;;;;;;;;-0.50;99.90;;;;;;5019400;28;20386;-74
2022/11/19 07:19:29;;;;;;;;;;;-0.40;99.90;;;;;;5003220;28;19913;-73
2022/11/19 07:21:55;;;;;;;;;;;-0.40;99.90;;;;;;5036868;28;20419;-73
2022/11/19 07:24:20;;;;;;;;;;;-0.40;99.90;;;;;;5037064;28;20288;-73
2022/11/19 07:26:46;;;;;;;;;;;-0.40;99.90;;;;;;5018988;28;19925;-73
2022/11/19 07:29:12;;;;;;;;;;;-0.40;99.90;;;;;;5037090;28;20008;-73
2022/11/19 07:31:38;;;;;;;;;;;-0.40;99.90;;;;;;5002856;28;19915;-74
2022/11/19 07:34:05;;;;;;;;;;;-0.30;99.90;;;;;;5019194;28;19909;-73
2022/11/19 07:36:30;;;;;;;;;;;-0.30;99.90;;;;;;5036924;28;19909;-73
2022/11/19 07:38:56;;;;;;;;;;;-0.20;99.90;;;;;;5036671;28;19916;-74
2022/11/19 07:44:07;;;;;;;;;;;-0.20;99.90;;;;;;5036574;28;19945;-73
2022/11/19 07:46:33;;;;;;;;;;;-0.20;99.90;;;;;;5018947;28;19971;-73
2022/11/19 07:48:58;;;;;;;;;;;-0.10;99.90;;;;;;5036628;28;19953;-73
2022/11/19 07:51:24;;;;;;;;;;;0.20;99.90;;;;;;5019139;28;19913;-73
2022/11/19 07:53:49;;;;;;;;;;;0.80;99.90;;;;;;5002495;28;20292;-74
2022/11/19 07:56:15;;;;;;;;;;;1.40;99.90;;;;;;5018969;28;19959;-73
2022/11/19 07:58:41;;;;;;;;;;;2.00;99.90;;;;;;5036482;28;19909;-73
2022/11/19 08:01:08;;;;;;;;;;;1.80;99.90;;;;;;5002602;28;19909;-73
2022/11/19 08:03:33;;;;;;;;;;;1.50;99.90;;;;;;5036105;28;19920;-74
2022/11/19 08:06:01;;;;;;;;;;;1.40;99.90;;;;;;5018642;28;20359;-73
2022/11/19 08:08:26;;;;;;;;;;;1.60;99.90;;;;;;5001993;28;20389;-74
2022/11/19 08:10:52;;;;;;;;;;;1.80;99.90;;;;;;5019215;28;19909;-73
2022/11/19 08:13:17;;;;;;;;;;;1.30;99.90;;;;;;5002017;28;19959;-74
2022/11/19 08:15:42;;;;;;;;;;;1.90;99.90;;;;;;5018511;28;20370;-73
2022/11/19 08:18:12;;;;;;;;;;;2.10;99.90;;;;;;5036162;28;19909;-73
2022/11/19 08:20:39;;;;;;;;;;;1.50;99.90;;;;;;5036047;28;19995;-74
2022/11/19 08:23:04;;;;;;;;;;;1.70;99.90;;;;;;5018622;28;19913;-74
2022/11/19 08:25:30;;;;;;;;;;;2.70;99.90;;;;;;5018343;28;19960;-73
2022/11/19 08:27:56;;;;;;;;;;;3.50;99.90;;;;;;5018372;28;20008;-74
2022/11/19 08:30:21;;;;;;;;;;;3.50;99.90;;;;;;5018201;28;19909;-74
2022/11/19 08:32:46;;;;;;;;;;;4.20;99.90;;;;;;5035978;28;19996;-73
2022/11/19 08:35:12;;;;;;;;;;;4.70;99.90;;;;;;5018125;28;20449;-73
2022/11/19 08:37:37;;;;;;;;;;;4.70;99.90;;;;;;5035723;28;19910;-73
2022/11/19 08:40:03;;;;;;;;;;;4.70;99.90;;;;;;5035519;28;20363;-74
2022/11/19 08:43:20;;;;;;;;;;;4.60;99.90;;;;;;5017992;28;19910;-73
2022/11/19 08:45:14;;;;;;;;;;;4.10;99.90;;;;;;5020625;28;20298;-74
2022/11/19 08:47:39;;;;;;;;;;;4.50;99.90;;;;;;5017737;28;19913;-74
2022/11/19 08:50:05;;;;;;;;;;;4.60;99.90;;;;;;5017898;28;19909;-74
2022/11/19 08:52:30;;;;;;;;;;;4.60;99.90;;;;;;5035391;28;19909;-74
2022/11/19 08:54:56;;;;;;;;;;;4.10;99.90;;;;;;5001313;28;19916;-73
2022/11/19 08:57:21;;;;;;;;;;;4.00;99.90;;;;;;5001845;28;19932;-74
2022/11/19 08:59:47;;;;;;;;;;;4.80;99.90;;;;;;5017637;28;19909;-73
2022/11/19 09:02:12;;;;;;;;;;;5.30;99.90;;;;;;5035212;28;19924;-74
2022/11/19 09:04:38;;;;;;;;;;;5.60;99.90;;;;;;5017642;28;19909;-74
2022/11/19 09:07:03;;;;;;;;;;;5.20;99.90;;;;;;5035113;28;19913;-73
2022/11/19 09:09:28;;;;;;;;;;;4.90;99.90;;;;;;5001182;28;20387;-74
2022/11/19 09:11:54;;;;;;;;;;;4.90;99.90;;;;;;5000888;28;19909;-73
2022/11/19 09:14:20;;;;;;;;;;;4.90;99.90;;;;;;5017467;28;20425;-74
2022/11/19 09:16:45;;;;;;;;;;;4.70;99.90;;;;;;5017255;28;19909;-73
2022/11/19 09:19:11;;;;;;;;;;;4.30;99.90;;;;;;5017249;28;19909;-74
2022/11/19 09:21:36;;;;;;;;;;;4.50;99.90;;;;;;5035027;28;19963;-75
2022/11/19 09:24:02;;;;;;;;;;;5.30;99.90;;;;;;5034759;28;20390;-74
2022/11/19 09:26:27;;;;;;;;;;;5.20;99.90;;;;;;5016861;28;19956;-74
2022/11/19 09:28:53;;;;;;;;;;;5.50;99.90;;;;;;5017139;28;19913;-74
2022/11/19 09:31:19;;;;;;;;;;;5.80;99.90;;;;;;5017006;28;20398;-74
2022/11/19 09:33:46;;;;;;;;;;;5.00;99.90;;;;;;5034550;28;19944;-74
2022/11/19 09:36:12;;;;;;;;;;;4.90;99.90;;;;;;5016728;28;19909;-74
2022/11/19 09:38:39;;;;;;;;;;;5.40;99.90;;;;;;5000443;28;19909;-74
2022/11/19 09:41:20;;;;;;;;;;;5.10;99.90;;;;;;5034400;28;19955;-74
2022/11/19 09:44:05;;;;;;;;;;;5.10;99.90;;;;;;5034631;28;19916;-74
2022/11/19 09:46:43;;;;;;;;;;;5.40;99.90;;;;;;5034388;28;20382;-74
2022/11/19 09:49:10;;;;;;;;;;;5.20;99.90;;;;;;5017084;28;19910;-75
2022/11/19 09:51:38;;;;;;;;;;;5.70;99.90;;;;;;5016838;28;20003;-73
2022/11/19 09:54:05;;;;;;;;;;;5.60;99.90;;;;;;5016620;28;19913;-74
2022/11/19 09:56:34;;;;;;;;;;;4.80;99.90;;;;;;5016726;28;19931;-74
2022/11/19 09:59:02;;;;;;;;;;;4.80;99.90;;;;;;5034321;28;19910;-74
2022/11/19 10:01:29;;;;;;;;;;;5.40;99.90;;;;;;5016591;28;20003;-74
2022/11/19 10:03:54;;;;;;;;;;;5.20;99.90;;;;;;5000372;28;19959;-73
2022/11/19 10:06:24;;;;;;;;;;;5.30;99.90;;;;;;5034097;28;20282;-73
2022/11/19 10:09:09;;;;;;;;;;;5.10;99.90;;;;;;5016913;28;19941;-74
2022/11/19 10:11:55;;;;;;;;;;;5.40;99.90;;;;;;5033894;28;19909;-74
2022/11/19 10:14:30;;;;;;;;;;;4.90;99.90;;;;;;5033844;28;19909;-74
2022/11/19 10:17:00;;;;;;;;;;;4.70;99.90;;;;;;5016279;28;19913;-74
2022/11/19 10:19:45;;;;;;;;;;;4.40;99.90;;;;;;5016288;28;20294;-74
2022/11/19 10:22:15;;;;;;;;;;;4.90;99.90;;;;;;5033800;28;20413;-73
2022/11/19 10:24:42;;;;;;;;;;;4.20;99.90;;;;;;5034036;28;19909;-74
2022/11/19 10:27:14;;;;;;;;;;;4.80;99.90;;;;;;5033710;28;19921;-75
2022/11/19 10:29:40;;;;;;;;;;;5.60;99.90;;;;;;5016186;28;20367;-74
2022/11/19 10:32:18;;;;;;;;;;;4.80;99.90;;;;;;5016457;28;19916;-74
2022/11/19 10:34:45;;;;;;;;;;;4.90;99.90;;;;;;5034211;28;19916;-74
2022/11/19 10:37:13;;;;;;;;;;;4.90;99.90;;;;;;5016611;28;19917;-74
2022/11/19 10:39:42;;;;;;;;;;;4.70;99.90;;;;;;5033918;28;19909;-74
2022/11/19 10:42:28;;;;;;;;;;;4.80;99.90;;;;;;5033936;28;19909;-73
2022/11/19 10:44:59;;;;;;;;;;;4.90;99.90;;;;;;5016121;28;20440;-74
2022/11/19 10:47:31;;;;;;;;;;;5.30;99.90;;;;;;5015922;28;20290;-74
2022/11/19 10:49:56;;;;;;;;;;;5.00;99.90;;;;;;5037420;28;20306;-74
2022/11/19 10:52:26;;;;;;;;;;;4.60;99.90;;;;;;5003690;28;19917;-74
2022/11/19 10:54:54;;;;;;;;;;;4.60;99.90;;;;;;5037727;28;19969;-73
2022/11/19 10:57:20;;;;;;;;;;;4.90;99.90;;;;;;5020002;28;19964;-74
2022/11/19 10:59:46;;;;;;;;;;;5.70;99.90;;;;;;5020016;28;19916;-74
2022/11/19 11:02:18;;;;;;;;;;;5.30;99.90;;;;;;5019646;28;19959;-74
2022/11/19 11:05:00;;;;;;;;;;;5.10;99.90;;;;;;5019681;28;19909;-74
2022/11/19 11:07:47;;;;;;;;;;;4.60;99.90;;;;;;5037389;28;19913;-74
2022/11/19 11:10:33;;;;;;;;;;;4.30;99.90;;;;;;5037263;28;19913;-74
2022/11/19 11:15:50;;;;;;;;;;;3.80;99.90;;;;;;5037303;28;19962;-75
2022/11/19 11:18:17;;;;;;;;;;;3.90;99.90;;;;;;5019372;28;19909;-73
2022/11/19 11:20:47;;;;;;;;;;;3.50;99.90;;;;;;5003147;28;20367;-73
2022/11/19 11:23:21;;;;;;;;;;;3.30;99.90;;;;;;5037194;28;19916;-73
2022/11/19 11:25:52;;;;;;;;;;;3.30;99.90;;;;;;5002924;28;19909;-73
2022/11/19 11:28:18;;;;;;;;;;;3.00;99.90;;;;;;5037052;28;19928;-74
2022/11/19 11:31:04;;;;;;;;;;;3.20;99.90;;;;;;5036972;28;19909;-73
2022/11/19 11:33:34;;;;;;;;;;;3.30;99.90;;;;;;5036931;28;19963;-73
2022/11/19 11:36:03;;;;;;;;;;;3.20;99.90;;;;;;5036972;28;19909;-73
2022/11/19 11:38:29;;;;;;;;;;;3.00;99.90;;;;;;5019356;28;19909;-73
2022/11/19 11:41:14;;;;;;;;;;;2.80;99.90;;;;;;5036597;28;20378;-73
2022/11/19 11:44:00;;;;;;;;;;;2.70;99.90;;;;;;5018995;28;20337;-73
2022/11/19 11:46:43;;;;;;;;;;;3.00;99.90;;;;;;5036625;28;19909;-73
2022/11/19 11:49:17;;;;;;;;;;;3.30;99.90;;;;;;5019006;28;19913;-73
2022/11/19 11:51:43;;;;;;;;;;;3.20;99.90;;;;;;5002439;28;19921;-73
2022/11/19 11:54:18;;;;;;;;;;;2.90;99.90;;;;;;5018782;28;19909;-73
2022/11/19 11:56:43;;;;;;;;;;;2.90;99.90;;;;;;5002607;28;19913;-74
2022/11/19 11:59:26;;;;;;;;;;;2.90;99.90;;;;;;5019033;28;19949;-74
2022/11/19 12:01:53;;;;;;;;;;;3.10;99.90;;;;;;5018822;28;20267;-73
2022/11/19 12:04:19;;;;;;;;;;;3.20;99.90;;;;;;5019001;28;19913;-73
2022/11/19 12:06:49;;;;;;;;;;;3.20;99.90;;;;;;5018541;28;20394;-73
2022/11/19 12:09:34;;;;;;;;;;;2.90;99.90;;;;;;5018675;28;19916;-73
2022/11/19 12:12:06;;;;;;;;;;;2.90;99.90;;;;;;5018480;28;19916;-74
2022/11/19 12:17:32;;;;;;;;;;;2.80;99.90;;;;;;5091773;27;20288;-74
2022/11/19 12:20:17;;;;;;;;;;;2.80;99.90;;;;;;5107123;28;19912;-73
2022/11/19 12:25:36;;;;;;;;;;;3.10;99.90;;;;;;5091873;27;19935;-73
2022/11/19 12:28:21;;;;;;;;;;;3.20;99.90;;;;;;5107091;28;19920;-73
2022/11/19 12:31:06;;;;;;;;;;;3.10;99.90;;;;;;5091579;28;19915;-73
2022/11/19 12:33:34;;;;;;;;;;;3.00;99.90;;;;;;5091683;28;19908;-73
2022/11/19 12:36:07;;;;;;;;;;;3.20;99.90;;;;;;5091266;28;19913;-73
2022/11/19 12:38:40;;;;;;;;;;;3.10;99.90;;;;;;5123906;28;19908;-73
2022/11/19 12:41:21;;;;;;;;;;;3.30;99.90;;;;;;5090418;28;19908;-73
2022/11/19 12:44:07;;;;;;;;;;;3.30;99.90;;;;;;5090940;28;19912;-73
2022/11/19 12:46:41;;;;;;;;;;;3.50;99.90;;;;;;5091288;28;19908;-73
2022/11/19 12:49:26;;;;;;;;;;;3.60;99.90;;;;;;5091175;28;20396;-73
2022/11/19 12:52:11;;;;;;;;;;;3.60;99.90;;;;;;5091011;28;20400;-73
2022/11/19 12:54:57;;;;;;;;;;;3.40;99.90;;;;;;5089801;28;20017;-73
2022/11/19 12:57:34;;;;;;;;;;;3.20;99.90;;;;;;5091080;28;19954;-73
2022/11/19 13:00:19;;;;;;;;;;;3.00;99.90;;;;;;5089575;28;20390;-74
2022/11/19 13:03:04;;;;;;;;;;;3.10;99.90;;;;;;5090744;28;19909;-74
2022/11/19 13:05:37;;;;;;;;;;;3.20;99.90;;;;;;5090825;28;19912;-73
2022/11/19 13:08:09;;;;;;;;;;;3.00;99.90;;;;;;5091208;28;19958;-73
2022/11/19 13:10:37;;;;;;;;;;;3.00;99.90;;;;;;5106367;28;20362;-74
2022/11/19 13:13:06;;;;;;;;;;;3.00;99.90;;;;;;5123781;28;19962;-73
2022/11/19 13:15:35;;;;;;;;;;;3.10;99.90;;;;;;5089259;28;19962;-73
2022/11/19 13:18:02;;;;;;;;;;;3.20;99.90;;;;;;5089271;28;19913;-74
2022/11/19 13:20:32;;;;;;;;;;;3.00;99.90;;;;;;5089446;28;20002;-73
2022/11/19 13:23:00;;;;;;;;;;;3.00;99.90;;;;;;5090443;28;19915;-74
2022/11/19 13:25:30;;;;;;;;;;;2.90;99.90;;;;;;5110111;28;19920;-74
2022/11/19 13:27:56;;;;;;;;;;;2.90;99.90;;;;;;5092513;28;19953;-74
2022/11/19 13:30:25;;;;;;;;;;;2.90;99.90;;;;;;5110546;28;19909;-73
2022/11/19 13:33:10;;;;;;;;;;;3.00;99.90;;;;;;5092318;28;19918;-73
2022/11/19 13:35:40;;;;;;;;;;;3.10;99.90;;;;;;5103845;28;20365;-73
2022/11/19 13:38:11;;;;;;;;;;;3.10;99.90;;;;;;5096811;28;20357;-74
2022/11/19 13:40:44;;;;;;;;;;;2.90;99.90;;;;;;5078908;28;20002;-73
2022/11/19 13:46:20;;;;;;;;;;;3.00;99.90;;;;;;5081361;28;19909;-73
2022/11/19 13:48:49;;;;;;;;;;;3.00;99.90;;;;;;5078622;28;20010;-73
2022/11/19 13:51:35;;;;;;;;;;;3.00;99.90;;;;;;5096693;28;19929;-73
2022/11/19 13:54:01;;;;;;;;;;;2.90;99.90;;;;;;5078406;28;19912;-73
2022/11/19 13:56:43;;;;;;;;;;;2.90;99.90;;;;;;5096566;28;20316;-73
2022/11/19 13:59:22;;;;;;;;;;;2.80;99.90;;;;;;5078420;28;19908;-73
2022/11/19 14:01:54;;;;;;;;;;;2.80;99.90;;;;;;5078297;28;20366;-73
2022/11/19 14:04:33;;;;;;;;;;;2.70;99.90;;;;;;5078272;28;19916;-74
2022/11/19 14:07:18;;;;;;;;;;;2.60;99.90;;;;;;5061591;28;19915;-74
2022/11/19 14:10:04;;;;;;;;;;;2.60;99.90;;;;;;5096401;28;19940;-74
2022/11/19 14:12:36;;;;;;;;;;;2.70;99.90;;;;;;5096101;28;20400;-74
2022/11/19 14:27:28;;;;;;;;;;;2.40;99.90;;;;;;5095864;28;20382;-74
2022/11/19 14:29:58;;;;;;;;;;;2.40;99.90;;;;;;5095962;28;19913;-74
2022/11/19 14:32:40;;;;;;;;;;;2.40;99.90;;;;;;5077726;28;19912;-73
2022/11/19 14:35:12;;;;;;;;;;;2.30;99.90;;;;;;5095785;28;19909;-74
2022/11/19 14:37:41;;;;;;;;;;;2.20;99.90;;;;;;5095903;28;19957;-74
2022/11/19 14:40:14;;;;;;;;;;;2.10;99.90;;;;;;5078099;28;19914;-73
2022/11/19 14:51:17;;;;;;;;;;;2.00;99.90;;;;;;5091547;27;19912;-74
2022/11/19 14:54:03;;;;;;;;;;;2.00;99.90;;;;;;5091588;28;20373;-74
2022/11/19 14:56:29;;;;;;;;;;;1.90;99.90;;;;;;5091614;28;19923;-73
2022/11/19 14:59:06;;;;;;;;;;;1.80;99.90;;;;;;5090025;28;19952;-74
2022/11/19 15:01:31;;;;;;;;;;;1.70;99.90;;;;;;5091304;28;20431;-73
2022/11/19 15:03:59;;;;;;;;;;;1.70;99.90;;;;;;5090079;28;19956;-74
2022/11/19 15:06:25;;;;;;;;;;;1.60;99.90;;;;;;5107276;28;20362;-74
2022/11/19 15:08:51;;;;;;;;;;;1.60;99.90;;;;;;5091201;28;19998;-74
2022/11/19 15:11:17;;;;;;;;;;;1.50;99.90;;;;;;5091443;28;19912;-74
2022/11/19 15:13:44;;;;;;;;;;;1.40;99.90;;;;;;5091389;28;20042;-73
2022/11/19 15:16:11;;;;;;;;;;;1.40;99.90;;;;;;5091062;28;19908;-74
2022/11/19 15:21:38;;;;;;;;;;;1.30;99.90;;;;;;5091544;27;19918;-73
2022/11/19 15:24:10;;;;;;;;;;;1.20;99.90;;;;;;5091370;28;19912;-73
2022/11/19 15:26:38;;;;;;;;;;;1.10;99.90;;;;;;5091746;28;19908;-73
2022/11/19 15:29:24;;;;;;;;;;;1.00;99.90;;;;;;5091728;28;19908;-73
2022/11/19 15:32:09;;;;;;;;;;;0.90;99.90;;;;;;5090175;28;20003;-73
2022/11/19 15:34:54;;;;;;;;;;;0.90;99.90;;;;;;5090140;28;19970;-73
2022/11/19 15:37:22;;;;;;;;;;;0.80;99.90;;;;;;5091316;28;20328;-73
2022/11/19 15:39:51;;;;;;;;;;;0.80;99.90;;;;;;5123896;28;20450;-73